Time;durP1;ratioP1;P1;durP2;ratioP2;P2;SDS_P1;SDS_P2;PMS_P1;PMS_P2;Temp;Humidity;BMP_temperature;BMP_pressure;BME280_temperature;BME280_humidity;BME280_pressure;Samples;Min_cycle;Max_cycle;Signal;HPM_P1;HPM_P2
2023/07/24 00:01:54;;;;;;;3.38;1.65;;;;;;;-145.41;100.00;58600.66;5004076;28;20503;-82
2023/07/24 00:04:19;;;;;;;6.95;1.98;;;;;;;-145.41;100.00;58600.66;5005302;28;20089;-83
2023/07/24 00:06:44;;;;;;;4.57;2.13;;;;;;;-145.41;100.00;58600.66;5002554;28;20049;-83
2023/07/24 00:09:10;;;;;;;5.10;1.85;;;;;;;-145.41;100.00;58600.66;5004313;28;20039;-82
2023/07/24 00:11:35;;;;;;;3.45;1.60;;;;;;;-145.41;100.00;58600.66;5000399;28;20042;-83
2023/07/24 00:14:00;;;;;;;4.03;1.95;;;;;;;-145.41;100.00;58600.66;5009500;28;20045;-82
2023/07/24 00:16:26;;;;;;;4.40;2.17;;;;;;;-145.41;100.00;58600.66;5010385;28;20069;-83
2023/07/24 00:18:51;;;;;;;3.65;2.00;;;;;;;-145.41;100.00;58600.66;5001208;28;20038;-83
2023/07/24 00:21:16;;;;;;;3.78;1.73;;;;;;;-145.41;100.00;58600.66;5003071;28;20046;-82
2023/07/24 00:23:41;;;;;;;6.85;2.30;;;;;;;-145.41;100.00;58600.66;5005655;28;20034;-82
2023/07/24 00:26:07;;;;;;;3.00;1.73;;;;;;;-145.41;100.00;58600.66;4989887;28;20112;-82
2023/07/24 00:28:32;;;;;;;4.30;2.10;;;;;;;-145.41;100.00;58600.66;5005241;28;20042;-83
2023/07/24 00:30:58;;;;;;;4.25;1.92;;;;;;;-145.41;100.00;58600.66;5009328;28;20041;-82
2023/07/24 00:33:24;;;;;;;3.55;2.10;;;;;;;-145.41;100.00;58600.66;5008631;28;20018;-83
2023/07/24 00:35:49;;;;;;;4.78;1.90;;;;;;;-145.41;100.00;58600.66;5002206;28;20031;-83
2023/07/24 00:38:14;;;;;;;3.70;1.70;;;;;;;-145.41;100.00;58600.66;4992900;28;20050;-83
2023/07/24 00:40:40;;;;;;;3.97;2.10;;;;;;;-145.41;100.00;58600.66;5000945;28;20038;-83
2023/07/24 00:43:05;;;;;;;3.20;1.70;;;;;;;-145.41;100.00;58600.66;5007676;28;20038;-82
2023/07/24 00:45:30;;;;;;;4.72;2.30;;;;;;;-145.41;100.00;58600.66;5006465;28;20048;-82
2023/07/24 00:47:56;;;;;;;3.63;2.33;;;;;;;-145.41;100.00;58600.66;5002837;28;20043;-82
2023/07/24 00:50:22;;;;;;;3.63;1.95;;;;;;;-145.41;100.00;58600.66;4992251;28;20033;-82
2023/07/24 00:52:48;;;;;;;3.83;2.08;;;;;;;-145.41;100.00;58600.66;5003880;28;20047;-82
2023/07/24 00:55:16;;;;;;;3.70;1.95;;;;;;;-145.41;100.00;58600.66;5012930;28;20040;-82
2023/07/24 00:57:42;;;;;;;5.22;2.08;;;;;;;-145.41;100.00;58600.66;5000507;28;20031;-83
2023/07/24 01:00:08;;;;;;;7.45;2.33;;;;;;;-145.41;100.00;58600.66;4992670;28;20069;-83
2023/07/24 01:02:34;;;;;;;4.10;2.13;;;;;;;-145.41;100.00;58600.66;5010164;28;20049;-82
2023/07/24 01:05:00;;;;;;;4.57;2.08;;;;;;;-145.41;100.00;58600.66;4991284;28;20489;-83
2023/07/24 01:07:25;;;;;;;6.13;2.50;;;;;;;-145.41;100.00;58600.66;5009929;28;20036;-83
2023/07/24 01:09:51;;;;;;;3.75;1.88;;;;;;;-145.41;100.00;58600.66;5003230;28;20172;-83
2023/07/24 01:12:27;;;;;;;5.90;2.28;;;;;;;-145.41;100.00;58600.66;5005017;28;20027;-82
2023/07/24 01:15:02;;;;;;;4.22;1.98;;;;;;;-145.41;100.00;58600.66;5009480;28;20049;-82
2023/07/24 01:17:30;;;;;;;4.35;2.33;;;;;;;-145.41;100.00;58600.66;4993229;28;20038;-82
2023/07/24 01:19:58;;;;;;;4.55;2.40;;;;;;;-145.41;100.00;58600.66;5008237;28;20038;-82
2023/07/24 01:22:27;;;;;;;3.90;2.30;;;;;;;-145.41;100.00;58600.66;5002042;28;20070;-83
2023/07/24 01:25:03;;;;;;;4.95;2.60;;;;;;;-145.41;100.00;58600.66;5005483;28;20034;-83
2023/07/24 01:27:29;;;;;;;6.97;2.95;;;;;;;-145.41;100.00;58600.66;5006153;28;20050;-83
2023/07/24 01:29:55;;;;;;;3.88;2.30;;;;;;;-145.41;100.00;58600.66;5008430;28;20045;-84
2023/07/24 01:32:21;;;;;;;5.13;2.30;;;;;;;-145.41;100.00;58600.66;5002041;28;20045;-83
2023/07/24 01:34:47;;;;;;;4.20;2.38;;;;;;;-145.41;100.00;58600.66;5003606;28;20443;-83
2023/07/24 01:37:14;;;;;;;4.68;2.15;;;;;;;-145.41;100.00;58600.66;5012374;28;20022;-83
2023/07/24 01:39:43;;;;;;;3.63;2.10;;;;;;;-145.41;100.00;58600.66;5007429;28;20035;-83
2023/07/24 01:42:10;;;;;;;4.13;2.15;;;;;;;-145.41;100.00;58600.66;5008347;28;20027;-82
2023/07/24 01:44:35;;;;;;;4.80;2.70;;;;;;;-145.41;100.00;58600.66;4989410;28;20106;-82
2023/07/24 01:47:01;;;;;;;5.70;2.78;;;;;;;-145.41;100.00;58600.66;5006221;28;20045;-81
2023/07/24 01:49:28;;;;;;;5.13;2.40;;;;;;;-145.41;100.00;58600.66;4998998;28;20054;-82
2023/07/24 01:51:53;;;;;;;4.88;2.67;;;;;;;-145.41;100.00;58600.66;5001037;28;20035;-81
2023/07/24 01:54:18;;;;;;;5.70;3.17;;;;;;;-145.41;100.00;58600.66;5003116;28;20442;-82
2023/07/24 01:56:43;;;;;;;4.97;2.83;;;;;;;-145.41;100.00;58600.66;5006268;28;20041;-82
2023/07/24 01:59:09;;;;;;;4.10;2.63;;;;;;;-145.41;100.00;58600.66;4985458;28;20041;-82
2023/07/24 02:01:35;;;;;;;4.90;2.95;;;;;;;-145.41;100.00;58600.66;5006301;28;20181;-82
2023/07/24 02:04:00;;;;;;;5.07;3.00;;;;;;;-145.41;100.00;58600.66;5000105;28;20031;-82
2023/07/24 02:06:26;;;;;;;5.25;2.35;;;;;;;-145.41;100.00;58600.66;5005374;28;20039;-81
2023/07/24 02:08:51;;;;;;;8.60;2.63;;;;;;;-145.41;100.00;58600.66;5006263;28;20042;-82
2023/07/24 02:11:17;;;;;;;5.63;3.28;;;;;;;-145.41;100.00;58600.66;5001677;28;20034;-82
2023/07/24 02:13:46;;;;;;;4.38;2.53;;;;;;;-145.41;100.00;58600.66;5004731;28;20034;-82
2023/07/24 02:16:12;;;;;;;3.88;2.42;;;;;;;-145.41;100.00;58600.66;5007150;28;20038;-82
2023/07/24 02:18:38;;;;;;;3.17;1.95;;;;;;;-145.41;100.00;58600.66;5008382;28;20042;-82
2023/07/24 02:21:04;;;;;;;4.72;2.28;;;;;;;-145.41;100.00;58600.66;5006308;28;20039;-83
2023/07/24 02:23:29;;;;;;;4.18;2.63;;;;;;;-145.41;100.00;58600.66;5008012;28;20041;-82
2023/07/24 02:25:54;;;;;;;5.00;3.40;;;;;;;-145.41;100.00;58600.66;5005191;28;20069;-82
2023/07/24 02:28:20;;;;;;;5.40;3.60;;;;;;;-145.41;100.00;58600.66;5003452;28;20105;-82
2023/07/24 02:30:49;;;;;;;5.25;3.17;;;;;;;-145.41;100.00;58600.66;5002613;28;20034;-83
2023/07/24 02:33:14;;;;;;;4.72;3.33;;;;;;;-145.41;100.00;58600.66;5008926;28;20034;-82
2023/07/24 02:35:41;;;;;;;4.55;2.70;;;;;;;-145.41;100.00;58600.66;4990021;28;20038;-82
2023/07/24 02:38:07;;;;;;;4.47;2.65;;;;;;;-145.41;100.00;58600.66;5002421;28;20520;-82
2023/07/24 02:40:33;;;;;;;7.03;2.42;;;;;;;-145.41;100.00;58600.66;5003714;28;20041;-82
2023/07/24 02:42:59;;;;;;;4.85;2.67;;;;;;;-145.41;100.00;58600.66;5001797;28;20010;-82
2023/07/24 02:45:24;;;;;;;6.20;2.92;;;;;;;-145.41;100.00;58600.66;5007455;28;20045;-82
2023/07/24 02:47:50;;;;;;;4.90;2.90;;;;;;;-145.41;100.00;58600.66;5001510;28;20030;-82
2023/07/24 02:50:15;;;;;;;4.85;2.65;;;;;;;-145.41;100.00;58600.66;5006435;28;20034;-82
2023/07/24 02:52:40;;;;;;;3.30;2.20;;;;;;;-145.41;100.00;58600.66;5000369;28;20042;-83
2023/07/24 02:55:06;;;;;;;4.47;2.28;;;;;;;-145.41;100.00;58600.66;5005551;28;20046;-82
2023/07/24 02:57:31;;;;;;;3.80;1.85;;;;;;;-145.41;100.00;58600.66;5000615;28;20041;-83
2023/07/24 02:59:57;;;;;;;3.40;2.08;;;;;;;-145.41;100.00;58600.66;5004481;28;20084;-83
2023/07/24 03:02:22;;;;;;;5.28;2.42;;;;;;;-145.41;100.00;58600.66;5000236;28;20125;-83
2023/07/24 03:04:48;;;;;;;4.65;2.45;;;;;;;-145.41;100.00;58600.66;4999642;28;20519;-83
2023/07/24 03:07:13;;;;;;;5.18;2.10;;;;;;;-145.41;100.00;58600.66;5005644;28;20034;-83
2023/07/24 03:09:38;;;;;;;4.38;2.20;;;;;;;-145.41;100.00;58600.66;4999914;28;20039;-84
2023/07/24 03:12:04;;;;;;;3.42;2.00;;;;;;;-145.41;100.00;58600.66;4999509;28;20134;-83
2023/07/24 03:14:29;;;;;;;4.55;2.53;;;;;;;-145.41;100.00;58600.66;4999961;28;20034;-83
2023/07/24 03:16:54;;;;;;;4.10;2.50;;;;;;;-145.41;100.00;58600.66;5001488;28;20030;-82
2023/07/24 03:19:20;;;;;;;4.50;2.47;;;;;;;-145.41;100.00;58600.66;5001559;28;20030;-83
2023/07/24 03:21:45;;;;;;;3.70;2.13;;;;;;;-145.41;100.00;58600.66;4986958;28;20047;-82
2023/07/24 03:24:11;;;;;;;4.18;2.40;;;;;;;-145.41;100.00;58600.66;4986556;28;20041;-82
2023/07/24 03:26:36;;;;;;;5.15;2.28;;;;;;;-145.41;100.00;58600.66;5002155;28;20478;-82
2023/07/24 03:29:01;;;;;;;5.75;3.10;;;;;;;-145.41;100.00;58600.66;5000351;28;20034;-83
2023/07/24 03:31:27;;;;;;;5.93;3.78;;;;;;;-145.41;100.00;58600.66;5013779;28;20109;-83
2023/07/24 03:33:52;;;;;;;5.75;3.25;;;;;;;-145.41;100.00;58600.66;4986420;28;20165;-83
2023/07/24 03:36:19;;;;;;;5.18;3.38;;;;;;;-145.41;100.00;58600.66;4999287;28;20600;-83
2023/07/24 03:38:44;;;;;;;5.65;3.25;;;;;;;-145.41;100.00;58600.66;5004419;28;20030;-83
2023/07/24 03:41:09;;;;;;;4.63;2.85;;;;;;;-145.41;100.00;58600.66;5000871;28;20026;-83
2023/07/24 03:43:35;;;;;;;4.45;2.65;;;;;;;-145.41;100.00;58600.66;4998816;28;20031;-82
2023/07/24 03:46:00;;;;;;;4.38;2.83;;;;;;;-145.41;100.00;58600.66;5009451;28;20034;-82
2023/07/24 03:48:25;;;;;;;4.97;3.13;;;;;;;-145.41;100.00;58600.66;5009785;28;20038;-83
2023/07/24 03:50:58;;;;;;;5.47;3.22;;;;;;;-145.41;100.00;58600.66;5006489;28;20030;-83
2023/07/24 03:53:24;;;;;;;7.22;4.03;;;;;;;-145.41;100.00;58600.66;5011414;28;20042;-82
2023/07/24 03:55:49;;;;;;;6.57;4.15;;;;;;;-145.41;100.00;58600.66;5016702;28;20038;-85
2023/07/24 03:58:14;;;;;;;8.23;4.78;;;;;;;-145.41;100.00;58600.66;5008574;28;20053;-83
2023/07/24 04:00:40;;;;;;;6.10;4.22;;;;;;;-145.41;100.00;58600.66;5007125;28;20069;-83
2023/07/24 04:03:05;;;;;;;5.38;3.35;;;;;;;-145.41;100.00;58600.66;5011846;28;20038;-83
2023/07/24 04:05:30;;;;;;;11.90;8.27;;;;;;;-145.41;100.00;58600.66;5009330;28;20066;-82
2023/07/24 04:07:56;;;;;;;10.43;5.72;;;;;;;-145.41;100.00;58600.66;5008216;28;20033;-83
2023/07/24 04:10:21;;;;;;;6.22;4.03;;;;;;;-145.41;100.00;58600.66;5005883;28;20030;-83
2023/07/24 04:12:46;;;;;;;7.18;3.67;;;;;;;-145.41;100.00;58600.66;4991469;28;20034;-83
2023/07/24 04:15:12;;;;;;;5.68;3.40;;;;;;;-145.41;100.00;58600.66;5007401;28;20038;-83
2023/07/24 04:17:38;;;;;;;5.05;3.22;;;;;;;-145.41;100.00;58600.66;5005113;28;20080;-83
2023/07/24 04:20:05;;;;;;;5.65;2.92;;;;;;;-145.41;100.00;58600.66;5012521;28;20088;-83
2023/07/24 04:22:30;;;;;;;5.95;2.78;;;;;;;-145.41;100.00;58600.66;4997097;28;20038;-83
2023/07/24 04:24:55;;;;;;;4.55;2.63;;;;;;;-145.41;100.00;58600.66;5006069;28;20034;-83
2023/07/24 04:27:21;;;;;;;6.45;3.03;;;;;;;-145.41;100.00;58600.66;5002579;28;20041;-84
2023/07/24 04:29:46;;;;;;;3.80;2.50;;;;;;;-145.41;100.00;58600.66;5000889;28;20030;-85
2023/07/24 04:32:11;;;;;;;4.22;2.40;;;;;;;-145.41;100.00;58600.66;5004149;28;20097;-84
2023/07/24 04:34:37;;;;;;;5.32;2.85;;;;;;;-145.41;100.00;58600.66;5000716;28;20062;-83
2023/07/24 04:37:02;;;;;;;4.00;2.58;;;;;;;-145.41;100.00;58600.66;4995878;28;20037;-83
2023/07/24 04:39:28;;;;;;;4.03;2.50;;;;;;;-145.41;100.00;58600.66;5004790;28;20042;-84
2023/07/24 04:41:53;;;;;;;4.60;3.00;;;;;;;-145.41;100.00;58600.66;5003313;28;20104;-83
2023/07/24 04:44:18;;;;;;;7.15;5.35;;;;;;;-145.41;100.00;58600.66;5004469;28;20026;-83
2023/07/24 04:46:44;;;;;;;7.53;5.03;;;;;;;-145.41;100.00;58600.66;5004301;28;20101;-83
2023/07/24 04:49:09;;;;;;;6.13;4.85;;;;;;;-145.41;100.00;58600.66;5005500;28;20038;-83
2023/07/24 04:51:35;;;;;;;6.00;3.55;;;;;;;-145.41;100.00;58600.66;5007135;28;20038;-83
2023/07/24 04:54:00;;;;;;;5.70;2.72;;;;;;;-145.41;100.00;58600.66;5006216;28;20069;-84
2023/07/24 04:56:25;;;;;;;5.55;3.05;;;;;;;-145.41;100.00;58600.66;5006364;28;20038;-83
2023/07/24 04:58:51;;;;;;;5.15;2.88;;;;;;;-145.41;100.00;58600.66;5009075;28;20113;-84
2023/07/24 05:01:16;;;;;;;4.75;3.17;;;;;;;-145.41;100.00;58600.66;5007677;28;20077;-83
2023/07/24 05:03:41;;;;;;;5.72;3.33;;;;;;;-145.41;100.00;58600.66;5009809;28;20057;-83
2023/07/24 05:06:06;;;;;;;4.68;2.92;;;;;;;-145.41;100.00;58600.66;5008214;28;20168;-83
2023/07/24 05:08:32;;;;;;;9.65;7.57;;;;;;;-145.41;100.00;58600.66;5009402;28;20030;-84
2023/07/24 05:10:58;;;;;;;8.15;5.82;;;;;;;-145.41;100.00;58600.66;5013290;28;20061;-83
2023/07/24 05:13:24;;;;;;;6.22;3.97;;;;;;;-145.41;100.00;58600.66;5007924;28;20030;-84
2023/07/24 05:15:49;;;;;;;5.13;3.05;;;;;;;-145.41;100.00;58600.66;5007326;28;20041;-83
2023/07/24 05:18:15;;;;;;;5.20;3.40;;;;;;;-145.41;100.00;58600.66;5006539;28;20470;-83
2023/07/24 05:20:48;;;;;;;6.22;3.00;;;;;;;-145.41;100.00;58600.66;5007142;28;20042;-83
2023/07/24 05:23:13;;;;;;;4.97;3.60;;;;;;;-145.41;100.00;58600.66;5004340;28;20544;-83
2023/07/24 05:25:39;;;;;;;5.03;3.40;;;;;;;-145.41;100.00;58600.66;4997199;28;20049;-83
2023/07/24 05:28:04;;;;;;;5.68;3.60;;;;;;;-145.41;100.00;58600.66;5007288;28;20113;-83
2023/07/24 05:30:29;;;;;;;6.57;3.92;;;;;;;-145.41;100.00;58600.66;5007119;28;20119;-84
2023/07/24 05:32:55;;;;;;;7.65;3.67;;;;;;;-145.41;100.00;58600.66;5008204;28;20041;-83
2023/07/24 05:35:20;;;;;;;5.97;3.83;;;;;;;-145.41;100.00;58600.66;5010019;28;20049;-84
2023/07/24 05:37:45;;;;;;;5.22;3.13;;;;;;;-145.41;100.00;58600.66;5007398;28;20156;-82
2023/07/24 05:40:11;;;;;;;6.82;3.17;;;;;;;-145.41;100.00;58600.66;5008382;28;20408;-82
2023/07/24 05:42:41;;;;;;;5.80;3.67;;;;;;;-145.41;100.00;58600.66;5008063;28;20056;-82
2023/07/24 05:45:07;;;;;;;7.65;3.00;;;;;;;-145.41;100.00;58600.66;5006032;28;20038;-83
2023/07/24 05:47:33;;;;;;;5.40;3.50;;;;;;;-145.41;100.00;58600.66;5009898;28;20476;-83
2023/07/24 05:49:58;;;;;;;5.97;2.95;;;;;;;-145.41;100.00;58600.66;5006963;28;20054;-83
2023/07/24 05:52:24;;;;;;;5.55;3.50;;;;;;;-145.41;100.00;58600.66;5009431;28;20058;-82
2023/07/24 05:54:49;;;;;;;6.88;3.67;;;;;;;-145.41;100.00;58600.66;5008548;28;20472;-83
2023/07/24 05:57:14;;;;;;;6.40;3.38;;;;;;;-145.41;100.00;58600.66;5007549;28;20269;-82
2023/07/24 05:59:42;;;;;;;5.53;3.80;;;;;;;-145.41;100.00;58600.66;5005519;28;20064;-81
2023/07/24 06:02:09;;;;;;;4.85;3.03;;;;;;;-145.41;100.00;58600.66;4996013;28;20428;-81
2023/07/24 06:04:34;;;;;;;6.88;3.47;;;;;;;-145.41;100.00;58600.66;4998758;28;20069;-81
2023/07/24 06:06:59;;;;;;;7.47;4.00;;;;;;;-145.41;100.00;58600.66;4992474;28;20062;-81
2023/07/24 06:09:24;;;;;;;9.23;4.38;;;;;;;-145.41;100.00;58600.66;4995657;28;20049;-81
2023/07/24 06:11:50;;;;;;;5.22;3.30;;;;;;;-145.41;100.00;58600.66;4995131;28;20034;-81
2023/07/24 06:14:15;;;;;;;5.55;3.38;;;;;;;-145.41;100.00;58600.66;4994796;28;20145;-81
2023/07/24 06:16:40;;;;;;;5.57;2.83;;;;;;;-145.41;100.00;58600.66;4993854;28;20039;-81
2023/07/24 06:19:06;;;;;;;4.85;3.20;;;;;;;-145.41;100.00;58600.66;4995238;28;20026;-82
2023/07/24 06:21:31;;;;;;;6.03;3.92;;;;;;;-145.41;100.00;58600.66;4993396;28;20497;-81
2023/07/24 06:23:57;;;;;;;5.35;3.17;;;;;;;-145.41;100.00;58600.66;4994639;28;20042;-81
2023/07/24 06:26:22;;;;;;;5.22;3.25;;;;;;;-145.41;100.00;58600.66;4994335;28;20053;-81
2023/07/24 06:28:47;;;;;;;6.25;3.28;;;;;;;-145.41;100.00;58600.66;4992679;28;20042;-81
2023/07/24 06:31:13;;;;;;;5.60;3.63;;;;;;;-145.41;100.00;58600.66;4993022;28;20038;-82
2023/07/24 06:33:38;;;;;;;6.88;3.65;;;;;;;-145.41;100.00;58600.66;4996845;28;20049;-81
2023/07/24 06:36:04;;;;;;;5.78;3.65;;;;;;;-145.41;100.00;58600.66;4994320;28;20042;-81
2023/07/24 06:38:29;;;;;;;5.00;3.10;;;;;;;-145.41;100.00;58600.66;4989688;28;20046;-81
2023/07/24 06:40:54;;;;;;;5.93;3.75;;;;;;;-145.41;100.00;58600.66;4992354;28;20485;-81
2023/07/24 06:43:20;;;;;;;6.43;3.67;;;;;;;-145.41;100.00;58600.66;4992135;28;20394;-81
2023/07/24 06:45:45;;;;;;;6.22;3.65;;;;;;;-145.41;100.00;58600.66;4995075;28;20034;-81
2023/07/24 06:48:10;;;;;;;4.25;2.72;;;;;;;-145.41;100.00;58600.66;4996923;28;20027;-81
2023/07/24 06:50:36;;;;;;;5.03;3.13;;;;;;;-145.41;100.00;58600.66;4991667;28;20516;-81
2023/07/24 06:53:01;;;;;;;6.63;3.63;;;;;;;-145.41;100.00;58600.66;4990451;28;20489;-81
2023/07/24 06:55:26;;;;;;;4.88;3.55;;;;;;;-145.41;100.00;58600.66;4993029;28;20464;-81
2023/07/24 06:57:52;;;;;;;5.25;2.97;;;;;;;-145.41;100.00;58600.66;4996943;28;20026;-82
2023/07/24 07:00:17;;;;;;;6.70;4.30;;;;;;;-145.41;100.00;58600.66;4996569;28;20474;-82
2023/07/24 07:02:42;;;;;;;7.95;4.35;;;;;;;-145.41;100.00;58600.66;4990001;28;20456;-81
2023/07/24 07:05:08;;;;;;;7.28;3.60;;;;;;;-145.41;100.00;58600.66;4988783;28;20042;-81
2023/07/24 07:07:33;;;;;;;6.00;3.97;;;;;;;-145.41;100.00;58600.66;4993888;28;20040;-81
2023/07/24 07:09:58;;;;;;;5.55;3.42;;;;;;;-145.41;100.00;58600.66;4992769;28;20443;-82
2023/07/24 07:12:24;;;;;;;7.70;3.85;;;;;;;-145.41;100.00;58600.66;4994266;28;20508;-81
2023/07/24 07:14:49;;;;;;;7.88;5.18;;;;;;;-145.41;100.00;58600.66;4993857;28;20462;-82
2023/07/24 07:17:14;;;;;;;4.85;3.20;;;;;;;-145.41;100.00;58600.66;4992086;28;20053;-81
2023/07/24 07:19:40;;;;;;;6.25;3.72;;;;;;;-145.41;100.00;58600.66;4994356;28;20096;-81
2023/07/24 07:22:05;;;;;;;5.28;3.15;;;;;;;-145.41;100.00;58600.66;4998756;28;20125;-81
2023/07/24 07:24:31;;;;;;;5.55;3.15;;;;;;;-145.41;100.00;58600.66;4998367;28;20034;-81
2023/07/24 07:26:56;;;;;;;7.05;2.88;;;;;;;-145.41;100.00;58600.66;4998185;28;20027;-82
2023/07/24 07:29:21;;;;;;;5.72;3.63;;;;;;;-145.41;100.00;58600.66;4998104;28;20684;-82
2023/07/24 07:31:47;;;;;;;6.68;3.05;;;;;;;-145.41;100.00;58600.66;4998910;28;20097;-82
2023/07/24 07:34:12;;;;;;;6.35;4.07;;;;;;;-145.41;100.00;58600.66;4998647;28;20026;-81
2023/07/24 07:36:37;;;;;;;7.70;4.05;;;;;;;-145.41;100.00;58600.66;4998767;28;20042;-82
2023/07/24 07:39:03;;;;;;;5.47;3.30;;;;;;;-145.41;100.00;58600.66;4996843;28;20042;-82
2023/07/24 07:41:28;;;;;;;5.43;4.00;;;;;;;-145.41;100.00;58600.66;4998118;28;20072;-81
2023/07/24 07:43:54;;;;;;;5.80;3.60;;;;;;;-145.41;100.00;58600.66;4998941;28;20042;-81
2023/07/24 07:46:19;;;;;;;5.88;3.60;;;;;;;-145.41;100.00;58600.66;4998335;28;20057;-82
2023/07/24 07:48:46;;;;;;;6.85;3.38;;;;;;;-145.41;100.00;58600.66;4998126;28;20026;-82
2023/07/24 07:51:11;;;;;;;4.55;2.90;;;;;;;-145.41;100.00;58600.66;4998228;28;20089;-82
2023/07/24 07:53:38;;;;;;;5.15;3.30;;;;;;;-145.41;100.00;58600.66;4998100;28;20042;-82
2023/07/24 07:56:04;;;;;;;7.93;3.33;;;;;;;-145.41;100.00;58600.66;5001305;28;20512;-82
2023/07/24 07:58:29;;;;;;;6.25;3.65;;;;;;;-145.41;100.00;58600.66;4998134;28;20405;-82
2023/07/24 08:00:55;;;;;;;6.65;3.50;;;;;;;-145.41;100.00;58600.66;4996863;28;20041;-82
2023/07/24 08:03:20;;;;;;;5.45;3.55;;;;;;;-145.41;100.00;58600.66;4997579;28;20034;-82
2023/07/24 08:05:46;;;;;;;8.80;3.92;;;;;;;-145.41;100.00;58600.66;4996408;28;20039;-82
2023/07/24 08:08:11;;;;;;;5.78;3.50;;;;;;;-145.41;100.00;58600.66;4993743;28;20033;-82
2023/07/24 08:10:38;;;;;;;5.95;3.65;;;;;;;-145.41;100.00;58600.66;5002592;28;20050;-82
2023/07/24 08:13:03;;;;;;;5.82;3.83;;;;;;;-145.41;100.00;58600.66;5000163;28;20214;-82
2023/07/24 08:15:28;;;;;;;6.43;3.10;;;;;;;-145.41;100.00;58600.66;4996866;28;20083;-82
2023/07/24 08:17:54;;;;;;;6.47;3.28;;;;;;;-145.41;100.00;58600.66;4997775;28;20061;-82
2023/07/24 08:20:19;;;;;;;6.38;4.07;;;;;;;-145.41;100.00;58600.66;4997128;28;20042;-82
2023/07/24 08:22:44;;;;;;;6.88;3.60;;;;;;;-145.41;100.00;58600.66;4995767;28;20034;-81
2023/07/24 08:25:10;;;;;;;7.72;3.95;;;;;;;-145.41;100.00;58600.66;4996840;28;20026;-82
2023/07/24 08:27:35;;;;;;;5.45;3.40;;;;;;;-145.41;100.00;58600.66;5000542;28;20045;-82
2023/07/24 08:30:00;;;;;;;5.50;3.25;;;;;;;-145.41;100.00;58600.66;4997982;28;20044;-81
2023/07/24 08:32:25;;;;;;;4.82;3.45;;;;;;;-145.41;100.00;58600.66;4995944;28;20038;-79
2023/07/24 08:34:51;;;;;;;6.15;4.13;;;;;;;-145.41;100.00;58600.66;4997449;28;20098;-82
2023/07/24 08:37:16;;;;;;;6.22;3.88;;;;;;;-145.41;100.00;58600.66;5002409;28;20062;-82
2023/07/24 08:39:42;;;;;;;5.15;3.78;;;;;;;-145.41;100.00;58600.66;4993407;28;20053;-82
2023/07/24 08:42:12;;;;;;;5.22;3.50;;;;;;;-145.41;100.00;58600.66;4995885;28;20096;-82
2023/07/24 08:44:38;;;;;;;6.57;4.28;;;;;;;-145.41;100.00;58600.66;4995310;28;20061;-82
2023/07/24 08:47:03;;;;;;;5.38;3.72;;;;;;;-145.41;100.00;58600.66;4997100;28;20757;-82
2023/07/24 08:49:30;;;;;;;5.93;3.97;;;;;;;-145.41;100.00;58600.66;4996081;28;20043;-82
2023/07/24 08:51:56;;;;;;;4.60;3.50;;;;;;;-145.41;100.00;58600.66;4996863;28;20046;-82
2023/07/24 08:54:24;;;;;;;6.00;3.75;;;;;;;-145.41;100.00;58600.66;4997385;28;20092;-82
2023/07/24 08:56:51;;;;;;;6.35;3.80;;;;;;;-145.41;100.00;58600.66;4996685;28;20038;-82
2023/07/24 08:59:17;;;;;;;6.07;4.13;;;;;;;-145.41;100.00;58600.66;4996986;28;20046;-82
2023/07/24 09:01:42;;;;;;;6.00;3.45;;;;;;;-145.41;100.00;58600.66;4997370;28;20089;-82
2023/07/24 09:04:08;;;;;;;5.93;3.35;;;;;;;-145.41;100.00;58600.66;4996911;28;20038;-82
2023/07/24 09:06:33;;;;;;;5.18;3.67;;;;;;;-145.41;100.00;58600.66;4997342;28;20053;-82
2023/07/24 09:08:59;;;;;;;7.00;4.43;;;;;;;-145.41;100.00;58600.66;4994211;28;20060;-82
2023/07/24 09:11:24;;;;;;;5.78;3.47;;;;;;;-145.41;100.00;58600.66;4997106;28;20046;-82
2023/07/24 09:13:50;;;;;;;5.93;3.85;;;;;;;-145.41;100.00;58600.66;4996130;28;20034;-82
2023/07/24 09:16:23;;;;;;;6.07;3.75;;;;;;;-145.41;100.00;58600.66;4996167;28;20397;-82
2023/07/24 09:18:51;;;;;;;6.85;3.65;;;;;;;-145.41;100.00;58600.66;5001718;28;20087;-82
2023/07/24 09:21:27;;;;;;;7.03;4.45;;;;;;;-145.41;100.00;58600.66;4997372;28;20069;-82
2023/07/24 09:23:52;;;;;;;5.40;3.05;;;;;;;-145.41;100.00;58600.66;4991243;28;20041;-82
2023/07/24 09:26:17;;;;;;;8.32;3.33;;;;;;;-145.41;100.00;58600.66;4996954;28;20031;-82
2023/07/24 09:28:51;;;;;;;6.78;3.17;;;;;;;-145.41;100.00;58600.66;4996875;28;20049;-82
2023/07/24 09:31:17;;;;;;;6.32;3.60;;;;;;;-145.41;100.00;58600.66;5003399;28;20042;-82
2023/07/24 09:33:46;;;;;;;6.60;3.25;;;;;;;-145.41;100.00;58600.66;4996079;28;20037;-82
2023/07/24 09:36:12;;;;;;;6.20;3.67;;;;;;;-145.41;100.00;58600.66;4993420;28;20791;-82
2023/07/24 09:38:38;;;;;;;6.32;3.80;;;;;;;-145.41;100.00;58600.66;4997989;28;20552;-82
2023/07/24 09:41:05;;;;;;;6.82;3.08;;;;;;;-145.41;100.00;58600.66;4993021;28;20042;-82
2023/07/24 09:43:31;;;;;;;5.40;3.78;;;;;;;-145.41;100.00;58600.66;4992844;28;20034;-82
2023/07/24 09:45:57;;;;;;;4.82;3.50;;;;;;;-145.41;100.00;58600.66;4996599;28;20034;-82
2023/07/24 09:48:24;;;;;;;5.78;3.88;;;;;;;-145.41;100.00;58600.66;4999231;28;20382;-82
2023/07/24 09:50:55;;;;;;;5.55;3.75;;;;;;;-145.41;100.00;58600.66;4997864;28;20026;-82
2023/07/24 09:53:34;;;;;;;5.37;3.63;;;;;;;-145.41;100.00;58600.66;4992455;28;20192;-82
2023/07/24 09:56:05;;;;;;;8.10;4.38;;;;;;;-145.41;100.00;58600.66;4994498;28;20041;-82
2023/07/24 09:58:36;;;;;;;6.57;3.88;;;;;;;-145.41;100.00;58600.66;4993159;28;20129;-82
2023/07/24 10:01:09;;;;;;;5.70;3.93;;;;;;;-145.41;100.00;58600.66;4996015;28;20049;-82
2023/07/24 10:03:38;;;;;;;6.68;4.38;;;;;;;-145.41;100.00;58600.66;4995824;28;20297;-82
2023/07/24 10:06:04;;;;;;;5.70;3.85;;;;;;;-145.41;100.00;58600.66;4995327;28;20088;-82
2023/07/24 10:08:31;;;;;;;6.07;3.78;;;;;;;-145.41;100.00;58600.66;4997646;28;20034;-83
2023/07/24 10:10:58;;;;;;;5.72;4.18;;;;;;;-145.41;100.00;58600.66;4997928;28;20164;-82
2023/07/24 10:13:26;;;;;;;6.55;4.40;;;;;;;-145.41;100.00;58600.66;4996619;28;20026;-83
2023/07/24 10:15:51;;;;;;;6.43;4.32;;;;;;;-145.41;100.00;58600.66;5001275;28;20037;-83
2023/07/24 10:18:20;;;;;;;7.57;4.90;;;;;;;-145.41;100.00;58600.66;4997466;28;20030;-82
2023/07/24 10:20:46;;;;;;;6.50;4.32;;;;;;;-145.41;100.00;58600.66;4994679;28;20323;-80
2023/07/24 10:23:17;;;;;;;7.13;4.53;;;;;;;-145.41;100.00;58600.66;4995266;28;20045;-82
2023/07/24 10:25:44;;;;;;;8.85;5.15;;;;;;;-145.41;100.00;58600.66;4994991;28;20513;-83
2023/07/24 10:28:11;;;;;;;8.88;6.32;;;;;;;-145.41;100.00;58600.66;4994518;28;20121;-82
2023/07/24 10:30:38;;;;;;;8.27;4.80;;;;;;;-145.41;100.00;58600.66;4992452;28;20034;-82
2023/07/24 10:33:12;;;;;;;11.02;4.95;;;;;;;-145.41;100.00;58600.66;4993533;28;20030;-82
2023/07/24 10:35:43;;;;;;;7.18;4.95;;;;;;;-145.41;100.00;58600.66;4991822;28;20038;-82
2023/07/24 10:38:09;;;;;;;7.53;4.75;;;;;;;-145.41;100.00;58600.66;4995355;28;20027;-82
2023/07/24 10:40:35;;;;;;;6.63;4.53;;;;;;;-145.41;100.00;58600.66;4992480;28;20041;-82
2023/07/24 10:43:05;;;;;;;7.07;4.72;;;;;;;-145.41;100.00;58600.66;4995322;28;20401;-83
2023/07/24 10:45:50;;;;;;;6.55;4.07;;;;;;;-145.41;100.00;58600.66;4996994;28;20037;-83
2023/07/24 10:48:17;;;;;;;7.40;4.65;;;;;;;-145.41;100.00;58600.66;4997179;28;20030;-84
2023/07/24 10:50:45;;;;;;;7.20;4.93;;;;;;;-145.41;100.00;58600.66;4999951;28;20038;-84
2023/07/24 10:53:18;;;;;;;7.35;4.90;;;;;;;-145.41;100.00;58600.66;4998502;28;20034;-84
2023/07/24 10:55:44;;;;;;;7.32;5.28;;;;;;;-145.41;100.00;58600.66;4998303;28;20035;-83
2023/07/24 10:58:11;;;;;;;7.13;5.00;;;;;;;-145.41;100.00;58600.66;4996600;28;20390;-83
2023/07/24 11:00:36;;;;;;;7.82;5.97;;;;;;;-145.41;100.00;58600.66;4999157;28;20042;-82
2023/07/24 11:03:02;;;;;;;18.67;5.80;;;;;;;-145.41;100.00;58600.66;4995611;28;20030;-83
2023/07/24 11:05:28;;;;;;;7.03;5.03;;;;;;;-145.41;100.00;58600.66;4995740;28;20167;-83